Gaylord, MI

10:50 PM EST on February 12, 2016 (GMT -0500)
Woodcrest Drive | | Change Station
CLOSE
Current Station
Personal Weather Station
Location: Gaylord, MI
Elevation: 1319 ft
Nearby Weather Stations
Active Advisory: Wind Chill Advisory

Elev 1319 ft 45.00 °N, 84.65 °W | Updated 1 minute ago

Light Snow
Light Snow
1.1 °F
Feels Like -9 °F
N
5.0
Wind Variable Wind from North
Gusts 8.0 mph

Today
High -- | Low -- °F
--% Chance of Precip.
Yesterday
High -- | Low -- °F
Precip. -- in
Pressure 30.12 in
Visibility 1.0 miles
Clouds
Windchill -9 °F
Dew Point -13 °F
Humidity 50%
Rainfall 0.00 in
Snow Depth Not available.
7:44 AM 6:01 PM
Waxing Crescent, 26% visible
SPECI KGLR 130317Z AUTO 34007KT 310V010 1SM -SN VV015 M17/M19 A3012 RMK AO2 P0000 T11671194
Pressure 30.12 in
Visibility 1.0 miles
Clouds
Windchill -9 °F
Dew Point -13 °F
Humidity 50%
Rainfall 0.00 in
Snow Depth Not available.
7:44 AM 6:01 PM
Waxing Crescent, 26% visible
SPECI KGLR 130317Z AUTO 34007KT 310V010 1SM -SN VV015 M17/M19 A3012 RMK AO2 P0000 T11671194

10-Day Weather Forecast

Almanac

Astronomy

Feb. 12, 2016 Rise Set
Actual Time
Civil Twilight
Nautical Twilight
Astronomical Twilight
Moon
Length of Visible Light
Length of Day
Tomorrow will be .
, % of the Moon is Illuminated

Today's Extremes

State Highs State Lows

Community

WunderPhotos

Upload Photos

1,892,492 photos uploaded!

WunderBlog® & News

Nearby

Air Quality

  Air Quality AQ Index Pollutant
Not available.

Snow Depth

Station Depth Elevation

Earthquake Activity

City Distance Mag. Time & Date
Minimum magnitude displayed is 2.5.

Coastal Water Temperatures

Place Temperature

Stations

Nearby Weather Stations

Station Location Temp. Windchill Dew Point Humidity Wind Precip. Elev Updated Type
                   

Watches & Warnings

Wind Chill Advisory
Issued: 9:14 PM EST Feb. 12, 2016 – National Weather Service

... Wind Chill Advisory remains in effect until noon EST
Saturday...

* wind chill values will reach 20 to 25 below zero late tonight
and Saturday morning.

* The coldest readings are expected along the Lake Huron coast...
   including Cheboygan and Rogers City.

Precautionary/preparedness actions...

A Wind Chill Advisory means that very cold air and winds will
combine to generate low wind chills. This will result in frost
bite and lead to hypothermia if precautions are not taken. If you
must venture outdoors... make sure you wear a hat and gloves.